createdAt,value
2022-08-31T00:00:57.752Z,5.53
2022-08-31T00:06:34.190Z,5.63
2022-08-31T00:09:23.851Z,5.50
2022-08-31T00:12:16.793Z,6.53
2022-08-31T00:17:59.313Z,5.57
2022-08-31T00:23:31.805Z,5.20
2022-08-31T00:29:00.025Z,5.60
2022-08-31T00:34:30.618Z,6.13
2022-08-31T00:40:01.017Z,6.83
2022-08-31T00:45:51.258Z,6.90
2022-08-31T00:51:22.755Z,6.63
2022-08-31T00:54:12.533Z,6.83
2022-08-31T00:57:01.507Z,6.50
2022-08-31T00:59:55.672Z,5.90
2022-08-31T01:05:33.889Z,5.23
2022-08-31T01:11:21.412Z,5.30
2022-08-31T01:14:12.483Z,5.03
2022-08-31T01:19:45.503Z,4.40
2022-08-31T01:25:33.467Z,4.77
2022-08-31T01:31:06.890Z,4.87
2022-08-31T01:36:44.470Z,5.13
2022-08-31T01:39:33.817Z,4.47
2022-08-31T01:45:12.865Z,4.80
2022-08-31T01:48:02.475Z,4.50
2022-08-31T01:50:50.974Z,4.27
2022-08-31T01:53:39.351Z,3.90
2022-08-31T01:56:32.477Z,4.07
2022-08-31T02:02:08.590Z,5.53
2022-08-31T02:07:43.801Z,7.40
2022-08-31T02:10:34.200Z,8.10
2022-08-31T02:13:22.448Z,8.13
2022-08-31T02:18:58.555Z,7.47
2022-08-31T02:24:34.871Z,9.67
2022-08-31T02:30:16.913Z,8.87
2022-08-31T02:35:53.603Z,8.30
2022-08-31T02:41:27.185Z,8.33
2022-08-31T02:47:06.328Z,8.23
2022-08-31T02:52:32.254Z,8.70
2022-08-31T02:58:11.378Z,8.77
2022-08-31T03:01:01.796Z,8.10
2022-08-31T03:06:37.261Z,8.43
2022-08-31T03:12:12.982Z,8.27
2022-08-31T03:17:52.258Z,8.07
2022-08-31T03:23:21.976Z,7.90
2022-08-31T03:26:18.312Z,7.77
2022-08-31T03:35:03.977Z,9.53
2022-08-31T03:40:40.661Z,9.23
2022-08-31T03:46:14.339Z,8.50
2022-08-31T03:51:51.856Z,8.63
2022-08-31T03:54:41.135Z,8.67
2022-08-31T04:00:12.594Z,9.60
2022-08-31T04:05:49.728Z,9.63
2022-08-31T04:11:44.218Z,10.20
2022-08-31T04:17:32.766Z,9.00
2022-08-31T04:23:03.679Z,9.37
2022-08-31T04:25:55.103Z,8.30
2022-08-31T04:28:44.252Z,8.13
2022-08-31T04:34:16.437Z,8.03
2022-08-31T04:40:13.184Z,8.47
2022-08-31T04:43:01.548Z,9.10
2022-08-31T04:48:38.180Z,8.50
2022-08-31T04:51:28.098Z,8.07
2022-08-31T04:57:03.739Z,9.17
2022-08-31T04:59:52.266Z,7.47
2022-08-31T05:02:40.829Z,8.20
2022-08-31T05:08:17.084Z,8.13
2022-08-31T05:13:59.837Z,4.77
2022-08-31T05:19:39.123Z,3.20
2022-08-31T05:25:15.539Z,3.37
2022-08-31T05:28:05.271Z,3.40
2022-08-31T05:30:53.387Z,3.30
2022-08-31T05:33:43.611Z,3.00
2022-08-31T05:36:32.234Z,3.00
2022-08-31T05:39:20.554Z,2.77
2022-08-31T05:42:09.393Z,3.40
2022-08-31T05:44:57.871Z,3.00
2022-08-31T05:47:46.353Z,2.90
2022-08-31T05:50:35.170Z,3.10
2022-08-31T05:53:26.975Z,3.27
2022-08-31T05:59:04.844Z,2.77
2022-08-31T06:01:53.409Z,2.87
2022-08-31T06:07:35.572Z,3.30
2022-08-31T06:13:16.970Z,2.87
2022-08-31T06:18:49.246Z,3.37
2022-08-31T06:24:25.298Z,3.07
2022-08-31T06:29:53.143Z,2.93
2022-08-31T06:38:07.875Z,3.30
2022-08-31T06:43:41.971Z,3.40
2022-08-31T06:49:19.046Z,3.63
2022-08-31T06:54:52.158Z,3.37
2022-08-31T07:00:22.497Z,2.90
2022-08-31T07:03:23.515Z,3.33
2022-08-31T07:06:15.212Z,3.17
2022-08-31T07:09:05.230Z,3.40
2022-08-31T07:14:39.994Z,3.33
2022-08-31T07:17:29.279Z,3.60
2022-08-31T07:20:17.436Z,3.70
2022-08-31T07:25:47.955Z,3.07
2022-08-31T07:28:38.465Z,3.57
2022-08-31T07:31:30.880Z,4.00
2022-08-31T07:37:40.099Z,4.30
2022-08-31T07:43:11.495Z,3.60
2022-08-31T07:48:48.412Z,4.13
2022-08-31T07:54:22.905Z,4.27
2022-08-31T07:57:15.447Z,4.53
2022-08-31T08:02:45.540Z,4.10
2022-08-31T08:08:26.846Z,3.87
2022-08-31T08:14:05.323Z,4.53
2022-08-31T08:19:38.891Z,4.37
2022-08-31T08:25:14.279Z,4.03
2022-08-31T08:30:46.806Z,4.17
2022-08-31T08:36:25.423Z,3.73
2022-08-31T08:39:14.230Z,3.70
2022-08-31T08:42:04.640Z,3.80
2022-08-31T08:47:47.424Z,4.43
2022-08-31T08:50:36.807Z,4.50
2022-08-31T08:53:27.425Z,4.10
2022-08-31T08:58:58.749Z,4.40
2022-08-31T09:04:35.642Z,4.30
2022-08-31T09:10:20.612Z,3.97
2022-08-31T09:16:04.679Z,4.60
2022-08-31T09:21:41.290Z,4.50
2022-08-31T09:27:21.902Z,4.27
2022-08-31T09:33:00.307Z,4.30
2022-08-31T09:38:32.819Z,4.60
2022-08-31T09:44:32.044Z,5.03
2022-08-31T09:47:44.967Z,4.37
2022-08-31T09:53:42.214Z,4.50
2022-08-31T09:59:18.702Z,4.90
2022-08-31T10:07:49.333Z,4.57
2022-08-31T10:10:40.435Z,4.20
2022-08-31T10:16:23.495Z,4.20
2022-08-31T10:22:02.574Z,4.40
2022-08-31T10:24:58.337Z,3.83
2022-08-31T10:30:40.029Z,4.40
2022-08-31T10:36:09.993Z,4.20
2022-08-31T10:38:59.149Z,4.00
2022-08-31T10:41:49.330Z,4.10
2022-08-31T10:47:33.259Z,4.53
2022-08-31T10:53:03.049Z,4.20
2022-08-31T10:59:02.457Z,4.97
2022-08-31T11:04:52.138Z,4.50
2022-08-31T11:10:32.102Z,5.20
2022-08-31T11:13:39.145Z,4.57
2022-08-31T11:16:36.271Z,5.20
2022-08-31T11:23:07.598Z,4.70
2022-08-31T11:28:54.701Z,4.67
2022-08-31T11:31:45.474Z,4.70
2022-08-31T11:37:13.850Z,5.10
2022-08-31T11:40:04.553Z,5.10
2022-08-31T11:45:38.793Z,4.67
2022-08-31T11:51:41.969Z,5.57
2022-08-31T11:55:01.147Z,5.47
2022-08-31T11:58:11.532Z,4.53
2022-08-31T12:01:06.488Z,5.30
2022-08-31T12:03:58.419Z,5.90
2022-08-31T12:07:04.729Z,5.70
2022-08-31T12:13:38.337Z,5.63
2022-08-31T12:20:05.653Z,5.30
2022-08-31T12:23:38.769Z,5.20
2022-08-31T12:29:25.931Z,5.20
2022-08-31T12:35:23.769Z,4.87
2022-08-31T12:43:38.673Z,5.30
2022-08-31T12:49:32.935Z,5.50
2022-08-31T12:55:22.061Z,5.10
2022-08-31T12:58:30.866Z,4.47
2022-08-31T13:07:17.622Z,5.30
2022-08-31T13:10:12.004Z,4.23
2022-08-31T13:15:46.106Z,4.43
2022-08-31T13:21:22.609Z,4.53
2022-08-31T13:24:13.696Z,4.50
2022-08-31T13:27:08.005Z,4.00
2022-08-31T13:32:59.710Z,3.83
2022-08-31T13:38:32.309Z,4.17
2022-08-31T13:44:09.693Z,4.07
2022-08-31T13:55:05.015Z,4.20
2022-08-31T14:00:44.391Z,4.90
2022-08-31T14:06:27.085Z,4.53
2022-08-31T14:09:18.114Z,4.60
2022-08-31T14:14:46.672Z,4.27
2022-08-31T14:17:35.476Z,3.93
2022-08-31T14:26:27.155Z,3.47
2022-08-31T14:29:19.752Z,3.63
2022-08-31T14:34:48.782Z,3.30
2022-08-31T14:37:37.986Z,3.77
2022-08-31T14:40:25.930Z,3.90
2022-08-31T14:46:21.306Z,4.30
2022-08-31T14:49:10.819Z,3.67
2022-08-31T14:52:00.651Z,4.50
2022-08-31T14:57:30.465Z,4.30
2022-08-31T15:03:02.460Z,4.50
2022-08-31T15:08:38.352Z,4.40
2022-08-31T15:14:06.176Z,4.30
2022-08-31T15:19:45.447Z,4.20
2022-08-31T15:22:35.241Z,4.03
2022-08-31T15:25:25.185Z,3.90
2022-08-31T15:31:01.902Z,4.00
2022-08-31T15:33:54.804Z,4.20
2022-08-31T15:39:40.899Z,3.73
2022-08-31T15:42:31.230Z,4.00
2022-08-31T15:54:48.334Z,3.00
2022-08-31T15:57:37.261Z,3.40
2022-08-31T16:00:26.323Z,3.20
2022-08-31T16:03:15.461Z,3.30
2022-08-31T16:08:53.571Z,3.40
2022-08-31T16:14:24.811Z,3.67
2022-08-31T16:19:56.634Z,3.80
2022-08-31T16:25:49.463Z,4.37
2022-08-31T16:31:18.598Z,4.43
2022-08-31T16:34:10.199Z,4.50
2022-08-31T16:36:59.860Z,4.70
2022-08-31T16:39:48.427Z,4.90
2022-08-31T16:42:36.876Z,5.50
2022-08-31T16:48:25.576Z,5.37
2022-08-31T16:51:16.073Z,5.57
2022-08-31T16:54:07.211Z,5.93
2022-08-31T16:56:57.725Z,6.13
2022-08-31T17:02:36.740Z,6.03
2022-08-31T17:08:07.974Z,6.77
2022-08-31T17:13:37.041Z,6.30
2022-08-31T17:19:18.370Z,6.83
2022-08-31T17:22:11.701Z,6.60
2022-08-31T17:27:58.709Z,6.90
2022-08-31T17:33:27.137Z,7.60
2022-08-31T17:39:02.054Z,7.47
2022-08-31T17:44:32.526Z,7.67
2022-08-31T17:47:21.562Z,7.53
2022-08-31T17:52:48.287Z,7.83
2022-08-31T17:58:20.798Z,7.93
2022-08-31T18:03:52.149Z,9.20
2022-08-31T18:09:53.897Z,9.17
2022-08-31T18:15:31.431Z,9.03
2022-08-31T18:21:09.344Z,9.17
2022-08-31T18:23:57.966Z,8.47
2022-08-31T18:29:26.736Z,9.03
2022-08-31T18:32:15.625Z,9.17
2022-08-31T18:37:45.508Z,8.70
2022-08-31T18:43:42.519Z,11.20
2022-08-31T18:46:30.763Z,8.93
2022-08-31T18:49:21.834Z,11.50
2022-08-31T18:54:59.836Z,9.93
2022-08-31T19:03:27.496Z,9.60
2022-08-31T19:06:21.418Z,9.50
2022-08-31T19:11:55.761Z,9.93
2022-08-31T19:14:45.240Z,9.17
2022-08-31T19:20:13.899Z,11.80
2022-08-31T19:23:02.742Z,11.27
2022-08-31T19:28:52.112Z,11.93
2022-08-31T19:34:28.621Z,11.23
2022-08-31T19:37:17.055Z,10.83
2022-08-31T19:40:07.702Z,10.67
2022-08-31T19:45:45.381Z,11.60
2022-08-31T19:53:55.156Z,11.83
2022-08-31T19:59:48.807Z,11.20
2022-08-31T20:02:40.756Z,11.43
2022-08-31T20:05:29.165Z,11.23
2022-08-31T20:11:01.864Z,12.60
2022-08-31T20:16:34.592Z,12.93
2022-08-31T20:19:25.371Z,13.77
2022-08-31T20:22:13.925Z,13.00
2022-08-31T20:27:44.061Z,13.83
2022-08-31T20:30:36.949Z,12.50
2022-08-31T20:36:20.078Z,13.63
2022-08-31T20:41:59.087Z,14.27
2022-08-31T20:48:04.031Z,13.83
2022-08-31T20:53:42.374Z,14.60
2022-08-31T20:56:24.800Z,14.00
2022-08-31T20:59:16.063Z,14.97
2022-08-31T21:04:56.852Z,15.80
2022-08-31T21:10:38.280Z,15.13
2022-08-31T21:16:19.586Z,14.43
2022-08-31T21:21:56.051Z,13.80
2022-08-31T21:24:44.307Z,15.37
2022-08-31T21:30:21.456Z,14.90
2022-08-31T21:33:10.818Z,13.37
2022-08-31T21:36:11.271Z,14.63
2022-08-31T21:41:47.272Z,14.97
2022-08-31T21:44:35.828Z,14.67
2022-08-31T21:47:28.477Z,14.53
2022-08-31T21:50:17.042Z,14.40
2022-08-31T21:53:07.446Z,15.03
2022-08-31T21:58:41.209Z,14.43
2022-08-31T22:01:33.313Z,14.90
2022-08-31T22:07:21.442Z,13.10
2022-08-31T22:10:12.067Z,13.67
2022-08-31T22:15:43.985Z,13.60
2022-08-31T22:19:00.295Z,13.70
2022-08-31T22:21:25.512Z,13.57
2022-08-31T22:27:02.637Z,14.13
2022-08-31T22:32:35.072Z,15.77
2022-08-31T22:38:10.530Z,16.60
2022-08-31T22:43:43.239Z,15.77
2022-08-31T22:49:21.613Z,13.67
2022-08-31T22:52:14.040Z,12.43
2022-08-31T22:55:00.503Z,12.43
2022-08-31T23:00:29.072Z,12.30
2022-08-31T23:03:20.228Z,12.17
2022-08-31T23:06:10.817Z,12.20
2022-08-31T23:09:00.059Z,12.63
2022-08-31T23:14:38.883Z,13.40
2022-08-31T23:23:45.458Z,12.97
2022-08-31T23:29:22.194Z,13.47
2022-08-31T23:34:59.128Z,13.33
2022-08-31T23:40:36.570Z,12.53
2022-08-31T23:43:26.711Z,13.13
2022-08-31T23:49:03.109Z,11.70
2022-08-31T23:51:51.763Z,10.67
2022-08-31T23:54:40.134Z,13.27
2022-08-31T23:57:33.264Z,13.50
